BLUO2: Blue River, Blue, OK

                                SHEF ID:       BLUO2     Blue River near Blue, OK
STATION TYPE:
Regulating: Stage = 21.00, Flow = 5001

PRECIP STAGE RIV-FLOW BAT-LOAD
in ft cfs volt
Ccp-Rev Ccp-Rev Ccp-Rev Ccp-Rev
(America/Chicago)
03/12 00:00 0.00 8.33 436 12.89
03/12 01:00 0.00 8.26 421 12.89
03/12 02:00 0.00 8.23 415 12.81
03/12 03:00 0.00 8.17 402 12.81
03/12 04:00 0.00 8.14 396 12.81
03/12 05:00 0.00 8.09 386 12.73
03/12 06:00 0.00 8.07 382 12.73
03/12 07:00 0.00 8.04 376 12.65
03/12 08:00 0.00 8.00 368 12.65
03/12 09:00 0.00 7.99 366 12.73
03/12 10:00 0.00 7.94 356 13.13
03/12 11:00 0.00 7.90 348 14.08
03/12 12:00 0.00 7.87 342 14.32
03/12 13:00 0.00 7.84 337 14.32
03/12 14:00 0.00 7.79 326 14.08
03/12 15:00 0.00 7.73 314 13.37
03/12 16:00 0.00 7.71 310 13.29
03/12 17:00 0.00 7.66 300 14.16
03/12 18:00 0.00 7.64 296 14.00
03/12 19:00 0.00 7.64 296 13.76
03/12 20:00 0.00 7.64 296 13.21
03/12 21:00 0.00 7.67 302 12.97
03/12 22:00 0.00 7.72 312 12.97
03/12 23:00 0.00 7.77 322 12.89
Data processed at Fri 13Mar2026 04:47 GMT

NOTICE: If you are parsing this page

Please convert to using our Data API. Starting early 2026 we will be migrating to: https://water.usace.army.mil with modern pages rendered in JavaScript. When this migration completes you will no longer be able to scrape this page! CWMSDataAPI (CDA)

Timeseries IDs (TSIDs)

TSIDs used from left to right in the data table
BLUE.Precip-Inc.Total.1Hour.1Hour.Ccp-Rev
BLUE.Stage.Inst.1Hour.0.Ccp-Rev
BLUE.Flow.Inst.1Hour.0.Ccp-Rev
BLUE.Volt-Battery Load.Inst.1Hour.0.Ccp-Rev

                            

All information presented herein is the property of the government of the United States of America and may be revised or deleted at any time without prior notice. Dissemination of this information without the expressed written consent of the Public Affairs Office, Tulsa District U.S. Army Corps of Engineers is strictly prohibited. These data are gathered electronically and, as presented, have NOT undergone any form of quality control. These data are NOT guaranteed to be valid or correct.